createdAt,value
2019-05-09T00:01:14.297Z,15.70
2019-05-09T00:03:44.309Z,15.70
2019-05-09T00:06:13.832Z,15.70
2019-05-09T00:08:44.271Z,15.60
2019-05-09T00:11:14.498Z,15.60
2019-05-09T00:13:43.795Z,15.60
2019-05-09T00:16:14.469Z,15.60
2019-05-09T00:18:44.104Z,15.50
2019-05-09T00:21:27.458Z,15.50
2019-05-09T00:23:56.299Z,15.50
2019-05-09T00:26:25.049Z,15.50
2019-05-09T00:29:07.392Z,15.50
2019-05-09T00:31:43.854Z,15.40
2019-05-09T00:34:30.689Z,15.40
2019-05-09T00:36:59.512Z,15.40
2019-05-09T00:39:28.286Z,15.50
2019-05-09T00:41:57.097Z,15.40
2019-05-09T00:44:27.501Z,15.40
2019-05-09T00:47:14.240Z,15.40
2019-05-09T00:49:43.488Z,15.40
2019-05-09T00:52:14.104Z,15.40
2019-05-09T00:54:43.756Z,15.40
2019-05-09T00:57:15.096Z,15.40
2019-05-09T00:59:44.635Z,15.40
2019-05-09T01:02:14.375Z,15.30
2019-05-09T01:04:43.794Z,15.40
2019-05-09T01:07:13.901Z,15.30
2019-05-09T01:09:43.958Z,15.30
2019-05-09T01:12:14.371Z,15.30
2019-05-09T01:14:43.348Z,15.30
2019-05-09T01:17:13.598Z,15.30
2019-05-09T01:19:43.237Z,15.30
2019-05-09T01:22:13.303Z,15.30
2019-05-09T01:24:44.190Z,15.20
2019-05-09T01:27:14.220Z,15.30
2019-05-09T01:29:43.962Z,15.30
2019-05-09T01:32:17.014Z,15.30
2019-05-09T01:34:45.867Z,15.30
2019-05-09T01:37:14.616Z,15.30
2019-05-09T01:39:44.042Z,15.30
2019-05-09T01:42:13.769Z,15.30
2019-05-09T01:44:44.024Z,15.30
2019-05-09T01:47:14.105Z,15.30
2019-05-09T01:49:43.232Z,15.30
2019-05-09T01:52:13.757Z,15.30
2019-05-09T01:54:43.877Z,15.30
2019-05-09T01:57:13.866Z,15.30
2019-05-09T01:59:44.373Z,15.30
2019-05-09T02:02:14.222Z,15.30
2019-05-09T02:04:43.946Z,15.30
2019-05-09T02:07:13.440Z,15.30
2019-05-09T02:09:43.416Z,15.30
2019-05-09T02:12:14.196Z,15.30
2019-05-09T02:14:47.480Z,15.30
2019-05-09T02:17:17.901Z,15.30
2019-05-09T02:19:47.631Z,15.30
2019-05-09T02:22:18.052Z,15.30
2019-05-09T02:24:46.901Z,15.30
2019-05-09T02:27:15.721Z,15.30
2019-05-09T02:29:44.602Z,15.30
2019-05-09T02:32:14.310Z,15.30
2019-05-09T02:34:44.245Z,15.30
2019-05-09T02:37:13.345Z,15.30
2019-05-09T02:39:42.116Z,15.20
2019-05-09T02:42:14.248Z,15.20
2019-05-09T02:44:41.442Z,15.20
2019-05-09T02:47:17.792Z,15.20
2019-05-09T02:49:48.388Z,15.30
2019-05-09T02:52:19.435Z,15.30
2019-05-09T02:54:49.686Z,15.30
2019-05-09T02:57:18.490Z,15.30
2019-05-09T03:00:01.239Z,15.30
2019-05-09T03:02:31.617Z,15.20
2019-05-09T03:05:00.414Z,15.20
2019-05-09T03:07:49.105Z,15.20
2019-05-09T03:10:22.538Z,15.20
2019-05-09T03:12:51.453Z,15.20
2019-05-09T03:15:20.486Z,15.20
2019-05-09T03:17:49.961Z,15.20
2019-05-09T03:20:23.443Z,15.20
2019-05-09T03:22:52.225Z,15.20
2019-05-09T03:25:20.978Z,15.20
2019-05-09T03:27:58.728Z,15.20
2019-05-09T03:30:34.722Z,15.20
2019-05-09T03:33:03.465Z,15.30
2019-05-09T03:35:32.251Z,15.20
2019-05-09T03:38:08.114Z,15.30
2019-05-09T03:40:37.856Z,15.30
2019-05-09T03:43:07.980Z,15.30
2019-05-09T03:45:38.617Z,15.30
2019-05-09T03:48:09.076Z,15.30
2019-05-09T03:50:38.351Z,15.30
2019-05-09T03:53:08.421Z,15.40
2019-05-09T03:55:38.370Z,15.40
2019-05-09T03:58:08.836Z,15.40
2019-05-09T04:00:37.679Z,15.40
2019-05-09T04:03:08.121Z,15.40
2019-05-09T04:05:37.683Z,15.40
2019-05-09T04:08:19.459Z,15.50
2019-05-09T04:10:50.796Z,15.50
2019-05-09T04:13:21.255Z,15.50
2019-05-09T04:15:50.183Z,15.60
2019-05-09T04:18:18.999Z,15.60
2019-05-09T04:20:48.320Z,15.60
2019-05-09T04:23:18.628Z,15.60
2019-05-09T04:25:49.124Z,15.70
2019-05-09T04:28:17.951Z,15.70
2019-05-09T04:30:47.861Z,15.70
2019-05-09T04:33:17.706Z,15.70
2019-05-09T04:35:47.589Z,15.80
2019-05-09T04:38:17.928Z,15.80
2019-05-09T04:40:48.863Z,15.80
2019-05-09T04:43:26.648Z,15.90
2019-05-09T04:45:49.398Z,15.90
2019-05-09T04:48:37.634Z,15.90
2019-05-09T04:51:07.888Z,15.90
2019-05-09T04:53:37.753Z,16.00
2019-05-09T04:56:17.786Z,16.00
2019-05-09T04:58:48.197Z,16.00
2019-05-09T05:01:24.907Z,16.10
2019-05-09T05:03:57.191Z,16.10
2019-05-09T05:06:27.902Z,16.10
2019-05-09T05:08:58.387Z,16.20
2019-05-09T05:11:27.897Z,16.20
2019-05-09T05:13:58.670Z,16.30
2019-05-09T05:16:27.513Z,16.30
2019-05-09T05:18:58.272Z,16.30
2019-05-09T05:21:28.486Z,16.40
2019-05-09T05:23:58.768Z,16.40
2019-05-09T05:26:27.754Z,16.50
2019-05-09T05:28:58.061Z,16.50
2019-05-09T05:31:28.520Z,16.50
2019-05-09T05:34:14.378Z,16.50
2019-05-09T05:36:43.242Z,16.60
2019-05-09T05:39:12.064Z,16.60
2019-05-09T05:41:40.814Z,16.70
2019-05-09T05:44:09.673Z,16.60
2019-05-09T05:46:42.814Z,16.70
2019-05-09T05:49:15.010Z,16.70
2019-05-09T05:51:49.315Z,16.80
2019-05-09T05:54:21.118Z,16.80
2019-05-09T05:56:49.953Z,16.90
2019-05-09T05:59:18.921Z,16.90
2019-05-09T06:01:48.024Z,16.90
2019-05-09T06:04:18.559Z,16.90
2019-05-09T06:06:48.139Z,16.90
2019-05-09T06:09:18.896Z,16.90
2019-05-09T06:11:48.425Z,16.90
2019-05-09T06:14:18.531Z,16.80
2019-05-09T06:16:48.646Z,16.80
2019-05-09T06:19:18.003Z,16.80
2019-05-09T06:21:48.524Z,16.90
2019-05-09T06:24:17.923Z,16.90
2019-05-09T06:26:47.854Z,16.90
2019-05-09T06:29:17.790Z,16.90
2019-05-09T06:31:48.401Z,17.00
2019-05-09T06:34:18.885Z,17.00
2019-05-09T06:36:48.945Z,17.10
2019-05-09T06:39:18.096Z,17.10
2019-05-09T06:41:48.337Z,17.20
2019-05-09T06:44:20.747Z,17.20
2019-05-09T06:46:53.826Z,17.30
2019-05-09T06:49:28.416Z,17.40
2019-05-09T06:51:54.709Z,17.40
2019-05-09T06:54:23.491Z,17.40
2019-05-09T06:56:52.245Z,17.40
2019-05-09T06:59:21.077Z,17.40
2019-05-09T07:02:00.852Z,17.40
2019-05-09T07:04:34.046Z,17.50
2019-05-09T07:07:17.678Z,17.60
2019-05-09T07:09:58.639Z,17.60
2019-05-09T07:12:27.483Z,17.60
2019-05-09T07:14:58.097Z,17.70
2019-05-09T07:17:31.875Z,17.70
2019-05-09T07:19:58.930Z,17.80
2019-05-09T07:25:24.539Z,17.90
2019-05-09T07:27:53.397Z,17.90
2019-05-09T07:30:39.360Z,18.00
2019-05-09T07:33:12.735Z,18.00
2019-05-09T07:35:42.546Z,18.10
2019-05-09T07:38:11.345Z,18.10
2019-05-09T07:40:40.130Z,18.20
2019-05-09T07:43:09.054Z,18.30
2019-05-09T07:45:38.489Z,18.30
2019-05-09T07:48:07.733Z,18.40
2019-05-09T07:50:38.884Z,18.50
2019-05-09T07:53:08.789Z,18.50
2019-05-09T07:55:38.012Z,18.60
2019-05-09T07:58:28.385Z,18.70
2019-05-09T08:01:00.966Z,18.70
2019-05-09T08:03:27.738Z,18.80
2019-05-09T08:05:58.007Z,18.80
2019-05-09T08:08:27.803Z,18.90
2019-05-09T08:10:58.450Z,18.90
2019-05-09T08:13:29.006Z,18.90
2019-05-09T08:15:58.559Z,18.70
2019-05-09T08:18:28.171Z,18.70
2019-05-09T08:20:57.779Z,18.70
2019-05-09T08:23:27.399Z,18.90
2019-05-09T08:25:57.968Z,19.00
2019-05-09T08:28:28.138Z,19.10
2019-05-09T08:30:58.579Z,19.10
2019-05-09T08:33:28.725Z,19.20
2019-05-09T08:35:58.547Z,19.20
2019-05-09T08:38:28.587Z,19.20
2019-05-09T08:41:10.345Z,19.30
2019-05-09T08:43:40.258Z,19.50
2019-05-09T08:46:09.484Z,19.60
2019-05-09T08:48:38.440Z,19.70
2019-05-09T08:51:09.190Z,19.80
2019-05-09T08:53:38.133Z,19.90
2019-05-09T08:56:09.009Z,20.00
2019-05-09T08:58:38.178Z,20.10
2019-05-09T09:01:09.927Z,20.10
2019-05-09T09:03:37.885Z,20.10
2019-05-09T09:06:08.331Z,20.10
2019-05-09T09:08:38.035Z,20.10
2019-05-09T09:11:08.630Z,20.10
2019-05-09T09:13:37.916Z,20.10
2019-05-09T09:16:15.719Z,20.20
2019-05-09T09:18:38.735Z,20.20
2019-05-09T09:21:08.206Z,20.20
2019-05-09T09:23:44.028Z,20.30
2019-05-09T09:26:08.175Z,20.30
2019-05-09T09:28:37.955Z,20.40
2019-05-09T09:31:08.170Z,20.40
2019-05-09T09:33:37.781Z,20.40
2019-05-09T09:36:08.761Z,20.40
2019-05-09T09:38:37.618Z,20.40
2019-05-09T09:41:07.963Z,20.50
2019-05-09T09:43:38.407Z,20.50
2019-05-09T09:46:14.368Z,20.60
2019-05-09T09:48:38.961Z,20.60
2019-05-09T09:51:08.354Z,20.60
2019-05-09T09:53:38.515Z,20.60
2019-05-09T09:56:08.691Z,20.60
2019-05-09T09:58:38.034Z,20.60
2019-05-09T10:01:28.801Z,20.70
2019-05-09T10:04:19.442Z,20.70
2019-05-09T10:06:43.845Z,20.70
2019-05-09T10:09:12.671Z,20.80
2019-05-09T10:11:41.416Z,20.80
2019-05-09T10:14:11.846Z,20.80
2019-05-09T10:16:58.856Z,20.90
2019-05-09T10:19:35.106Z,20.90
2019-05-09T10:22:05.623Z,20.90
2019-05-09T10:24:34.439Z,21.00
2019-05-09T10:27:08.677Z,21.00
2019-05-09T10:29:38.881Z,21.00
2019-05-09T10:32:09.238Z,21.00
2019-05-09T10:34:38.026Z,21.00
2019-05-09T10:37:07.689Z,21.00
2019-05-09T10:39:38.091Z,21.00
2019-05-09T10:42:28.630Z,21.00
2019-05-09T10:44:59.167Z,21.00
2019-05-09T10:47:29.606Z,21.00
2019-05-09T10:49:58.435Z,21.00
2019-05-09T10:52:28.307Z,21.00
2019-05-09T10:54:58.052Z,21.10
2019-05-09T10:57:31.844Z,21.10
2019-05-09T10:59:58.089Z,21.20
2019-05-09T11:02:27.920Z,21.30
2019-05-09T11:04:57.681Z,21.30
2019-05-09T11:07:28.872Z,21.30
2019-05-09T11:09:58.804Z,21.30
2019-05-09T11:12:27.719Z,21.30
2019-05-09T11:14:59.490Z,21.20
2019-05-09T11:17:28.608Z,21.30
2019-05-09T11:19:58.766Z,21.40
2019-05-09T11:22:29.163Z,21.40
2019-05-09T11:24:58.295Z,21.50
2019-05-09T11:27:29.289Z,21.50
2019-05-09T11:29:58.284Z,21.50
2019-05-09T11:32:27.886Z,21.50
2019-05-09T11:34:57.570Z,21.60
2019-05-09T11:37:26.721Z,21.70
2019-05-09T11:39:57.853Z,21.70
2019-05-09T11:42:28.327Z,21.70
2019-05-09T11:44:58.029Z,21.80
2019-05-09T11:47:37.582Z,21.80
2019-05-09T11:49:58.085Z,21.80
2019-05-09T11:52:28.863Z,21.80
2019-05-09T11:54:58.091Z,21.90
2019-05-09T11:57:28.687Z,21.90
2019-05-09T11:59:57.951Z,21.90
2019-05-09T12:02:27.930Z,22.00
2019-05-09T12:04:56.876Z,22.00
2019-05-09T12:07:25.662Z,22.30
2019-05-09T12:09:54.878Z,22.30
2019-05-09T12:12:23.738Z,22.50
2019-05-09T12:14:52.561Z,22.60
2019-05-09T12:17:21.408Z,22.80
2019-05-09T12:19:50.285Z,22.70
2019-05-09T12:22:19.400Z,22.80
2019-05-09T12:24:48.607Z,22.80
2019-05-09T12:27:18.908Z,22.80
2019-05-09T12:29:48.417Z,23.00
2019-05-09T12:32:18.606Z,23.00
2019-05-09T12:34:48.042Z,23.10
2019-05-09T12:37:18.519Z,23.20
2019-05-09T12:39:48.731Z,23.30
2019-05-09T12:42:18.515Z,23.40
2019-05-09T12:44:49.605Z,23.50
2019-05-09T12:47:19.175Z,23.60
2019-05-09T12:49:48.785Z,23.60
2019-05-09T12:52:18.595Z,23.70
2019-05-09T12:54:48.373Z,23.70
2019-05-09T12:57:19.221Z,23.70
2019-05-09T12:59:52.351Z,23.80
2019-05-09T13:02:18.168Z,23.80
2019-05-09T13:04:47.654Z,23.90
2019-05-09T13:07:16.590Z,24.00
2019-05-09T13:09:45.388Z,23.90
2019-05-09T13:12:14.314Z,24.00
2019-05-09T13:14:43.072Z,24.10
2019-05-09T13:17:13.472Z,24.50
2019-05-09T13:19:43.905Z,24.90
2019-05-09T13:22:12.666Z,25.20
2019-05-09T13:24:41.487Z,25.70
2019-05-09T13:27:10.306Z,26.10
2019-05-09T13:29:39.168Z,26.40
2019-05-09T13:32:08.854Z,26.70
2019-05-09T13:34:38.152Z,26.80
2019-05-09T13:37:09.051Z,26.60
2019-05-09T13:39:39.653Z,26.50
2019-05-09T13:42:08.356Z,26.30
2019-05-09T13:44:41.348Z,26.00
2019-05-09T13:47:10.664Z,25.60
2019-05-09T13:49:39.682Z,25.40
2019-05-09T13:52:10.161Z,25.20
2019-05-09T13:54:39.135Z,25.00
2019-05-09T13:57:08.797Z,24.90
2019-05-09T13:59:37.654Z,24.80
2019-05-09T14:02:06.420Z,24.70
2019-05-09T14:04:35.290Z,24.60
2019-05-09T14:07:04.047Z,24.50
2019-05-09T14:09:32.880Z,24.40
2019-05-09T14:12:01.640Z,24.50
2019-05-09T14:14:30.414Z,24.40
2019-05-09T14:16:59.460Z,24.30
2019-05-09T14:19:40.017Z,24.30
2019-05-09T14:21:58.913Z,24.30
2019-05-09T14:24:28.054Z,24.20
2019-05-09T14:26:58.177Z,24.20
2019-05-09T14:29:31.397Z,24.20
2019-05-09T14:31:57.662Z,24.10
2019-05-09T14:34:26.566Z,24.10
2019-05-09T14:36:58.408Z,24.00
2019-05-09T14:39:27.657Z,24.00
2019-05-09T14:41:57.854Z,24.10
2019-05-09T14:44:27.759Z,24.10
2019-05-09T14:46:58.362Z,24.10
2019-05-09T14:49:39.735Z,24.10
2019-05-09T14:51:58.337Z,24.00
2019-05-09T14:54:28.850Z,24.00
2019-05-09T14:56:58.353Z,23.90
2019-05-09T14:59:28.639Z,23.90
2019-05-09T15:01:59.097Z,23.80
2019-05-09T15:04:28.150Z,23.70
2019-05-09T15:06:57.875Z,23.70
2019-05-09T15:09:28.432Z,23.50
2019-05-09T15:11:58.482Z,23.40
2019-05-09T15:14:28.928Z,23.30
2019-05-09T15:16:57.872Z,23.20
2019-05-09T15:19:28.790Z,23.10
2019-05-09T15:22:00.435Z,23.10
2019-05-09T15:24:28.635Z,23.00
2019-05-09T15:26:58.083Z,23.00
2019-05-09T15:29:29.031Z,22.90
2019-05-09T15:32:05.425Z,22.80
2019-05-09T15:34:28.622Z,22.70
2019-05-09T15:36:58.339Z,22.60
2019-05-09T15:39:27.723Z,22.60
2019-05-09T15:41:57.979Z,22.40
2019-05-09T15:44:26.952Z,22.30
2019-05-09T15:47:12.644Z,22.20
2019-05-09T15:49:41.403Z,22.20
2019-05-09T15:52:10.260Z,22.10
2019-05-09T15:54:40.732Z,22.10
2019-05-09T15:57:09.539Z,22.00
2019-05-09T15:59:38.949Z,21.90
2019-05-09T16:02:09.080Z,21.90
2019-05-09T16:04:40.202Z,21.80
2019-05-09T16:07:08.946Z,21.80
2019-05-09T16:09:37.938Z,21.70
2019-05-09T16:12:07.774Z,21.70
2019-05-09T16:14:38.070Z,21.60
2019-05-09T16:17:07.839Z,21.50
2019-05-09T16:19:37.790Z,21.40
2019-05-09T16:22:07.992Z,21.40
2019-05-09T16:24:38.057Z,21.40
2019-05-09T16:27:08.489Z,21.30
2019-05-09T16:29:38.335Z,21.30
2019-05-09T16:32:08.845Z,21.20
2019-05-09T16:34:38.722Z,21.20
2019-05-09T16:37:07.760Z,21.10
2019-05-09T16:39:37.850Z,21.10
2019-05-09T16:42:06.782Z,21.00
2019-05-09T16:44:37.564Z,21.00
2019-05-09T16:47:08.232Z,21.00
2019-05-09T16:49:38.756Z,21.00
2019-05-09T16:52:07.533Z,20.90
2019-05-09T16:54:38.756Z,20.90
2019-05-09T16:57:08.308Z,20.90
2019-05-09T16:59:38.832Z,20.90
2019-05-09T17:02:18.886Z,20.80
2019-05-09T17:04:38.724Z,20.80
2019-05-09T17:07:08.414Z,20.80
2019-05-09T17:09:40.273Z,20.80
2019-05-09T17:12:09.099Z,20.80
2019-05-09T17:14:37.931Z,20.90
2019-05-09T17:17:08.551Z,20.80
2019-05-09T17:19:37.793Z,20.80
2019-05-09T17:22:17.480Z,20.90
2019-05-09T17:24:48.355Z,20.80
2019-05-09T17:27:18.852Z,20.80
2019-05-09T17:29:48.063Z,20.80
2019-05-09T17:32:18.267Z,20.70
2019-05-09T17:34:47.676Z,20.70
2019-05-09T17:37:17.730Z,20.70
2019-05-09T17:39:46.813Z,20.60
2019-05-09T17:42:18.092Z,20.60
2019-05-09T17:44:48.590Z,20.60
2019-05-09T17:47:17.499Z,20.50
2019-05-09T17:49:48.214Z,20.50
2019-05-09T17:52:18.300Z,20.50
2019-05-09T17:54:48.563Z,20.40
2019-05-09T17:57:18.767Z,20.40
2019-05-09T17:59:48.797Z,20.40
2019-05-09T18:02:17.868Z,20.30
2019-05-09T18:04:48.036Z,20.30
2019-05-09T18:07:17.996Z,20.30
2019-05-09T18:09:48.414Z,20.30
2019-05-09T18:12:18.990Z,20.20
2019-05-09T18:14:47.963Z,20.20
2019-05-09T18:17:17.949Z,20.20
2019-05-09T18:19:46.988Z,20.20
2019-05-09T18:22:15.842Z,20.10
2019-05-09T18:24:44.727Z,20.10
2019-05-09T18:27:13.477Z,20.10
2019-05-09T18:29:42.277Z,20.00
2019-05-09T18:32:12.685Z,20.00
2019-05-09T18:34:41.540Z,20.00
2019-05-09T18:37:10.381Z,20.00
2019-05-09T18:39:39.236Z,19.90
2019-05-09T18:42:08.666Z,19.90
2019-05-09T18:44:37.692Z,19.90
2019-05-09T18:47:07.783Z,19.90
2019-05-09T18:49:36.719Z,19.90
2019-05-09T18:52:05.618Z,19.80
2019-05-09T18:54:34.409Z,19.80
2019-05-09T18:57:03.180Z,19.80
2019-05-09T18:59:32.044Z,19.70
2019-05-09T19:02:00.800Z,19.70
2019-05-09T19:04:29.593Z,19.70
2019-05-09T19:06:58.416Z,19.70
2019-05-09T19:09:27.266Z,19.60
2019-05-09T19:11:56.015Z,19.60
2019-05-09T19:14:24.887Z,19.60
2019-05-09T19:17:01.354Z,19.60
2019-05-09T19:19:40.735Z,19.60
2019-05-09T19:22:21.417Z,19.50
2019-05-09T19:24:40.118Z,19.50
2019-05-09T19:27:09.219Z,19.50
2019-05-09T19:29:38.057Z,19.50
2019-05-09T19:32:06.905Z,19.50
2019-05-09T19:34:35.697Z,19.40
2019-05-09T19:37:04.507Z,19.40
2019-05-09T19:39:33.330Z,19.40
2019-05-09T19:42:02.188Z,19.30
2019-05-09T19:44:31.033Z,19.30
2019-05-09T19:47:01.766Z,19.30
2019-05-09T19:49:30.364Z,19.30
2019-05-09T19:51:59.116Z,19.30
2019-05-09T19:54:27.949Z,19.20
2019-05-09T19:56:56.814Z,19.10
2019-05-09T19:59:25.567Z,19.00
2019-05-09T20:01:54.339Z,18.90
2019-05-09T20:04:23.240Z,18.90
2019-05-09T20:06:52.005Z,18.80
2019-05-09T20:09:28.419Z,18.70
2019-05-09T20:12:01.598Z,18.60
2019-05-09T20:14:31.991Z,18.50
2019-05-09T20:17:00.865Z,18.50
2019-05-09T20:19:29.640Z,18.40
2019-05-09T20:21:58.393Z,18.40
2019-05-09T20:24:27.243Z,18.20
2019-05-09T20:26:56.082Z,18.20
2019-05-09T20:29:24.833Z,18.10
2019-05-09T20:31:53.647Z,18.00
2019-05-09T20:34:22.500Z,18.00
2019-05-09T20:36:51.363Z,17.90
2019-05-09T20:39:20.393Z,17.90
2019-05-09T20:41:49.323Z,17.90
2019-05-09T20:44:18.348Z,17.90
2019-05-09T20:46:47.411Z,17.80
2019-05-09T20:49:16.402Z,17.80
2019-05-09T20:51:45.354Z,17.70
2019-05-09T20:54:20.929Z,17.70
2019-05-09T20:56:44.996Z,17.60
2019-05-09T20:59:14.008Z,17.60
2019-05-09T21:01:43.065Z,17.50
2019-05-09T21:04:12.064Z,17.50
2019-05-09T21:06:41.093Z,17.40
2019-05-09T21:09:10.085Z,17.40
2019-05-09T21:11:39.077Z,17.40
2019-05-09T21:14:08.043Z,17.30
2019-05-09T21:16:37.099Z,17.30
2019-05-09T21:19:06.126Z,17.30
2019-05-09T21:21:35.147Z,17.20
2019-05-09T21:24:04.213Z,17.20
2019-05-09T21:26:33.156Z,17.10
2019-05-09T21:29:02.197Z,17.10
2019-05-09T21:31:31.269Z,17.10
2019-05-09T21:34:00.293Z,17.10
2019-05-09T21:36:29.112Z,17.10
2019-05-09T21:38:57.919Z,17.10
2019-05-09T21:41:26.735Z,17.10
2019-05-09T21:43:55.567Z,17.10
2019-05-09T21:46:24.450Z,17.20
2019-05-09T21:48:53.222Z,17.20
2019-05-09T21:51:22.061Z,17.20
2019-05-09T21:53:50.874Z,17.20
2019-05-09T21:56:20.104Z,17.20
2019-05-09T21:58:48.874Z,17.20
2019-05-09T22:01:19.535Z,17.20
2019-05-09T22:03:48.461Z,17.20
2019-05-09T22:06:17.289Z,17.20
2019-05-09T22:08:46.169Z,17.10
2019-05-09T22:11:15.005Z,17.10
2019-05-09T22:13:43.853Z,17.10
2019-05-09T22:16:12.709Z,17.20
2019-05-09T22:18:41.537Z,17.10
2019-05-09T22:21:11.941Z,17.10
2019-05-09T22:23:55.148Z,17.20
2019-05-09T22:26:11.406Z,17.20
2019-05-09T22:28:40.185Z,17.20
2019-05-09T22:31:09.040Z,17.20
2019-05-09T22:33:37.870Z,17.20
2019-05-09T22:36:06.712Z,17.20
2019-05-09T22:38:35.517Z,17.30
2019-05-09T22:41:04.296Z,17.30
2019-05-09T22:43:33.125Z,17.20
2019-05-09T22:46:01.987Z,17.20
2019-05-09T22:48:30.798Z,17.20
2019-05-09T22:50:59.560Z,17.10
2019-05-09T22:53:28.343Z,17.10
2019-05-09T22:55:57.104Z,17.10
2019-05-09T22:58:25.924Z,17.00
2019-05-09T23:00:54.775Z,17.00
2019-05-09T23:03:23.610Z,17.00
2019-05-09T23:05:52.653Z,16.90
2019-05-09T23:08:21.538Z,16.90
2019-05-09T23:10:53.421Z,16.90
2019-05-09T23:13:20.799Z,16.90
2019-05-09T23:15:49.683Z,16.80
2019-05-09T23:18:18.566Z,16.80
2019-05-09T23:20:48.979Z,16.80
2019-05-09T23:23:22.333Z,16.80
2019-05-09T23:25:51.082Z,16.70
2019-05-09T23:28:19.892Z,16.70
2019-05-09T23:30:50.297Z,16.70
2019-05-09T23:33:19.620Z,16.70
2019-05-09T23:35:48.501Z,16.70
2019-05-09T23:38:17.292Z,16.70
2019-05-09T23:40:46.038Z,16.70
2019-05-09T23:43:14.821Z,16.70
2019-05-09T23:45:43.935Z,16.70
2019-05-09T23:48:12.851Z,16.70
2019-05-09T23:50:41.783Z,16.70
2019-05-09T23:53:10.669Z,16.70
2019-05-09T23:55:56.923Z,16.70
2019-05-09T23:58:43.367Z,16.60
